createdAt,value
2018-09-04T00:01:00.263Z,19.07
2018-09-04T00:03:31.139Z,20.93
2018-09-04T00:06:01.231Z,21.10
2018-09-04T00:08:31.892Z,18.13
2018-09-04T00:11:02.055Z,17.17
2018-09-04T00:13:32.121Z,18.27
2018-09-04T00:16:06.233Z,18.20
2018-09-04T00:18:37.282Z,20.50
2018-09-04T00:21:07.640Z,18.70
2018-09-04T00:23:37.757Z,18.53
2018-09-04T00:26:08.273Z,19.27
2018-09-04T00:28:38.786Z,18.97
2018-09-04T00:31:08.933Z,23.73
2018-09-04T00:33:39.535Z,22.83
2018-09-04T00:36:11.296Z,21.50
2018-09-04T00:38:42.490Z,21.73
2018-09-04T00:41:13.675Z,21.90
2018-09-04T00:43:43.743Z,24.47
2018-09-04T00:46:14.247Z,22.10
2018-09-04T00:48:44.409Z,23.97
2018-09-04T00:51:14.510Z,23.60
2018-09-04T00:53:44.665Z,24.97
2018-09-04T00:56:14.816Z,25.60
2018-09-04T00:58:44.820Z,28.10
2018-09-04T01:01:15.313Z,25.87
2018-09-04T01:03:45.735Z,25.67
2018-09-04T01:06:16.121Z,25.33
2018-09-04T01:08:46.656Z,28.30
2018-09-04T01:11:17.822Z,29.13
2018-09-04T01:13:48.137Z,28.20
2018-09-04T01:16:18.453Z,26.97
2018-09-04T01:18:48.826Z,27.40
2018-09-04T01:21:19.364Z,28.83
2018-09-04T01:23:49.506Z,27.43
2018-09-04T01:26:19.640Z,29.87
2018-09-04T01:28:50.043Z,30.43
2018-09-04T01:31:20.131Z,33.13
2018-09-04T01:33:50.241Z,29.33
2018-09-04T01:36:20.727Z,28.67
2018-09-04T01:38:50.819Z,30.93
2018-09-04T01:41:21.033Z,31.70
2018-09-04T01:43:51.679Z,31.80
2018-09-04T01:46:22.334Z,32.60
2018-09-04T01:48:53.470Z,31.80
2018-09-04T01:51:24.514Z,34.57
2018-09-04T01:53:54.678Z,39.57
2018-09-04T01:56:25.226Z,40.90
2018-09-04T01:58:55.530Z,37.43
2018-09-04T02:01:26.568Z,42.93
2018-09-04T02:03:57.239Z,43.27
2018-09-04T02:06:28.013Z,43.17
2018-09-04T02:08:58.735Z,42.80
2018-09-04T02:11:29.180Z,48.20
2018-09-04T02:13:59.633Z,43.50
2018-09-04T02:16:29.861Z,46.03
2018-09-04T02:19:00.059Z,41.67
2018-09-04T02:21:30.380Z,45.20
2018-09-04T02:24:01.142Z,39.60
2018-09-04T02:26:31.298Z,41.57
2018-09-04T02:29:01.469Z,43.90
2018-09-04T02:31:31.485Z,39.17
2018-09-04T02:34:01.639Z,42.67
2018-09-04T02:36:31.695Z,36.33
2018-09-04T02:39:01.732Z,35.63
2018-09-04T02:41:31.892Z,38.73
2018-09-04T02:44:01.982Z,36.60
2018-09-04T02:46:32.207Z,36.27
2018-09-04T02:49:03.482Z,32.63
2018-09-04T02:51:33.697Z,33.47
2018-09-04T02:54:03.828Z,33.50
2018-09-04T02:56:34.503Z,34.77
2018-09-04T02:59:05.396Z,33.63
2018-09-04T03:01:36.130Z,34.90
2018-09-04T03:04:06.546Z,37.93
2018-09-04T03:06:36.652Z,36.37
2018-09-04T03:09:07.512Z,39.40
2018-09-04T03:11:37.647Z,34.80
2018-09-04T03:14:08.279Z,37.27
2018-09-04T03:16:38.622Z,36.63
2018-09-04T03:19:08.961Z,43.80
2018-09-04T03:21:39.577Z,43.10
2018-09-04T03:24:10.195Z,47.37
2018-09-04T03:26:40.301Z,38.73
2018-09-04T03:29:10.338Z,43.17
2018-09-04T03:31:41.016Z,39.97
2018-09-04T03:34:11.919Z,42.87
2018-09-04T03:36:42.044Z,39.60
2018-09-04T03:39:12.634Z,40.40
2018-09-04T03:41:43.235Z,44.60
2018-09-04T03:44:13.703Z,41.30
2018-09-04T03:46:44.527Z,44.37
2018-09-04T03:49:14.633Z,40.70
2018-09-04T03:51:45.475Z,45.23
2018-09-04T03:54:15.649Z,40.37
2018-09-04T03:56:46.283Z,41.67
2018-09-04T03:59:16.402Z,45.47
2018-09-04T04:01:46.692Z,43.60
2018-09-04T04:04:16.863Z,42.00
2018-09-04T04:06:46.894Z,48.03
2018-09-04T04:09:16.897Z,44.63
2018-09-04T04:11:48.212Z,46.10
2018-09-04T04:14:18.657Z,46.97
2018-09-04T04:16:49.468Z,51.10
2018-09-04T04:19:19.964Z,48.33
2018-09-04T04:21:51.273Z,47.93
2018-09-04T04:24:21.329Z,51.83
2018-09-04T04:26:51.402Z,52.73
2018-09-04T04:29:21.878Z,56.70
2018-09-04T04:31:52.039Z,53.43
2018-09-04T04:34:22.617Z,51.60
2018-09-04T04:36:53.259Z,51.70
2018-09-04T04:39:23.482Z,45.90
2018-09-04T04:41:53.605Z,50.00
2018-09-04T04:44:24.101Z,50.83
2018-09-04T04:46:54.184Z,47.13
2018-09-04T04:49:24.517Z,44.97
2018-09-04T04:51:54.563Z,47.07
2018-09-04T04:54:24.923Z,49.20
2018-09-04T04:56:55.006Z,46.10
2018-09-04T04:59:25.604Z,50.57
2018-09-04T05:01:55.975Z,49.63
2018-09-04T05:04:26.361Z,49.03
2018-09-04T05:06:56.492Z,44.47
2018-09-04T05:09:26.635Z,47.67
2018-09-04T05:11:56.758Z,48.03
2018-09-04T05:14:26.863Z,45.43
2018-09-04T05:16:56.933Z,45.30
2018-09-04T05:19:27.057Z,40.43
2018-09-04T05:21:57.827Z,41.97
2018-09-04T05:24:28.060Z,42.80
2018-09-04T05:26:58.697Z,43.00
2018-09-04T05:29:29.764Z,41.77
2018-09-04T05:32:07.269Z,36.93
2018-09-04T05:34:37.769Z,40.90
2018-09-04T05:37:07.889Z,40.57
2018-09-04T05:39:38.743Z,42.10
2018-09-04T05:42:13.885Z,41.70
2018-09-04T05:44:44.731Z,49.17
2018-09-04T05:47:15.340Z,41.60
2018-09-04T05:49:46.325Z,41.77
2018-09-04T05:52:17.390Z,41.90
2018-09-04T05:54:47.481Z,44.00
2018-09-04T05:57:17.652Z,46.13
2018-09-04T05:59:48.181Z,44.60
2018-09-04T06:02:18.874Z,43.30
2018-09-04T06:04:49.367Z,42.67
2018-09-04T06:07:19.420Z,41.53
2018-09-04T06:09:49.569Z,45.10
2018-09-04T06:12:20.496Z,48.33
2018-09-04T06:14:50.832Z,45.77
2018-09-04T06:17:21.311Z,45.37
2018-09-04T06:19:51.849Z,43.63
2018-09-04T06:22:22.228Z,44.83
2018-09-04T06:24:52.272Z,47.87
2018-09-04T06:27:22.424Z,45.03
2018-09-04T06:29:52.621Z,45.33
2018-09-04T06:32:22.772Z,46.83
2018-09-04T06:34:52.864Z,45.97
2018-09-04T06:37:23.591Z,46.10
2018-09-04T06:39:54.375Z,43.60
2018-09-04T06:42:24.509Z,42.97
2018-09-04T06:44:55.083Z,44.17
2018-09-04T06:47:25.818Z,45.80
2018-09-04T06:49:56.524Z,48.37
2018-09-04T06:52:26.947Z,45.60
2018-09-04T06:54:57.037Z,45.33
2018-09-04T06:57:27.669Z,44.57
2018-09-04T06:59:58.076Z,47.33
2018-09-04T07:02:28.811Z,46.37
2018-09-04T07:04:58.891Z,44.10
2018-09-04T07:07:29.270Z,44.63
2018-09-04T07:09:59.863Z,48.87
2018-09-04T07:12:30.080Z,47.33
2018-09-04T07:15:00.381Z,46.67
2018-09-04T07:17:30.575Z,45.87
2018-09-04T07:20:01.135Z,48.30
2018-09-04T07:22:31.234Z,47.80
2018-09-04T07:25:01.436Z,47.63
2018-09-04T07:27:31.525Z,59.10
2018-09-04T07:30:02.136Z,46.87
2018-09-04T07:32:32.613Z,46.90
2018-09-04T07:35:02.767Z,47.10
2018-09-04T07:37:32.864Z,45.60
2018-09-04T07:40:02.972Z,48.30
2018-09-04T07:42:33.001Z,45.27
2018-09-04T07:45:03.321Z,47.67
2018-09-04T07:47:33.934Z,49.07
2018-09-04T07:50:04.917Z,51.83
2018-09-04T07:52:35.088Z,45.60
2018-09-04T07:55:05.839Z,45.70
2018-09-04T07:57:35.976Z,45.37
2018-09-04T08:00:06.904Z,42.93
2018-09-04T08:02:37.258Z,44.63
2018-09-04T08:05:07.602Z,46.20
2018-09-04T08:07:37.867Z,44.30
2018-09-04T08:10:08.685Z,42.53
2018-09-04T08:12:38.640Z,42.83
2018-09-04T08:15:08.763Z,43.10
2018-09-04T08:17:38.950Z,42.60
2018-09-04T08:20:09.131Z,44.03
2018-09-04T08:22:39.296Z,42.27
2018-09-04T08:25:09.437Z,42.30
2018-09-04T08:27:39.590Z,43.10
2018-09-04T08:30:10.298Z,41.83
2018-09-04T08:32:41.228Z,44.37
2018-09-04T08:35:11.831Z,41.87
2018-09-04T08:37:42.389Z,46.13
2018-09-04T08:40:12.632Z,40.77
2018-09-04T08:42:43.237Z,42.27
2018-09-04T08:45:14.574Z,41.13
2018-09-04T08:47:44.940Z,43.20
2018-09-04T08:50:15.202Z,41.87
2018-09-04T08:52:46.195Z,44.10
2018-09-04T08:55:16.388Z,44.67
2018-09-04T08:57:47.373Z,43.53
2018-09-04T09:00:18.068Z,40.33
2018-09-04T09:02:48.397Z,46.00
2018-09-04T09:05:18.570Z,43.37
2018-09-04T09:07:48.641Z,40.70
2018-09-04T09:10:18.726Z,41.93
2018-09-04T09:12:49.018Z,40.50
2018-09-04T09:15:19.488Z,39.53
2018-09-04T09:17:49.721Z,44.83
2018-09-04T09:20:20.285Z,45.87
2018-09-04T09:22:50.383Z,44.70
2018-09-04T09:25:21.104Z,41.27
2018-09-04T09:27:51.332Z,46.33
2018-09-04T09:30:21.808Z,44.50
2018-09-04T09:32:52.301Z,40.77
2018-09-04T09:35:22.276Z,42.63
2018-09-04T09:37:52.621Z,42.77
2018-09-04T09:40:22.679Z,42.70
2018-09-04T09:42:52.868Z,41.27
2018-09-04T09:45:23.020Z,41.57
2018-09-04T09:47:54.350Z,42.27
2018-09-04T09:50:25.064Z,36.20
2018-09-04T09:52:55.293Z,37.63
2018-09-04T09:55:25.404Z,43.30
2018-09-04T09:57:55.527Z,40.43
2018-09-04T10:00:38.601Z,40.07
2018-09-04T10:03:13.627Z,39.10
2018-09-04T10:05:44.787Z,37.67
2018-09-04T10:08:15.506Z,39.87
2018-09-04T10:10:45.512Z,39.03
2018-09-04T10:13:16.474Z,40.83
2018-09-04T10:15:46.566Z,39.00
2018-09-04T10:18:16.612Z,44.53
2018-09-04T10:20:47.103Z,41.17
2018-09-04T10:23:17.372Z,40.20
2018-09-04T10:25:47.758Z,37.53
2018-09-04T10:28:18.183Z,37.30
2018-09-04T10:30:48.283Z,38.70
2018-09-04T10:33:18.822Z,37.03
2018-09-04T10:35:48.846Z,35.40
2018-09-04T10:38:19.004Z,37.17
2018-09-04T10:40:49.096Z,37.77
2018-09-04T10:43:19.479Z,38.03
2018-09-04T10:45:54.676Z,37.43
2018-09-04T10:48:25.057Z,34.70
2018-09-04T10:50:58.674Z,36.93
2018-09-04T10:53:35.228Z,36.33
2018-09-04T10:56:07.575Z,36.10
2018-09-04T10:58:37.629Z,39.77
2018-09-04T11:01:08.006Z,38.73
2018-09-04T11:03:38.301Z,37.40
2018-09-04T11:06:08.551Z,37.27
2018-09-04T11:08:39.057Z,41.57
2018-09-04T11:11:09.531Z,37.93
2018-09-04T11:13:39.911Z,38.13
2018-09-04T11:16:10.326Z,36.17
2018-09-04T11:18:40.707Z,35.83
2018-09-04T11:21:10.774Z,33.93
2018-09-04T11:23:40.894Z,34.07
2018-09-04T11:26:11.987Z,33.03
2018-09-04T11:28:45.520Z,34.10
2018-09-04T11:31:15.589Z,33.30
2018-09-04T11:33:45.945Z,31.47
2018-09-04T11:36:16.078Z,31.20
2018-09-04T11:38:46.491Z,36.95
2018-09-04T11:41:16.578Z,34.70
2018-09-04T11:43:46.854Z,30.97
2018-09-04T11:46:17.266Z,34.00
2018-09-04T11:48:48.386Z,32.58
2018-09-04T11:51:18.498Z,32.85
2018-09-04T11:53:48.744Z,33.67
2018-09-04T11:56:20.203Z,32.57
2018-09-04T11:58:51.168Z,35.23
2018-09-04T12:01:25.846Z,34.53
2018-09-04T12:03:56.352Z,31.40
2018-09-04T12:06:26.850Z,28.97
2018-09-04T12:08:57.632Z,29.63
2018-09-04T12:11:27.856Z,28.90
2018-09-04T12:13:58.272Z,26.90
2018-09-04T12:16:28.812Z,26.97
2018-09-04T12:18:59.437Z,27.80
2018-09-04T12:21:29.558Z,28.37
2018-09-04T12:24:00.074Z,29.02
2018-09-04T12:26:30.360Z,28.25
2018-09-04T12:29:00.415Z,28.10
2018-09-04T12:31:31.210Z,24.85
2018-09-04T12:34:01.804Z,24.85
2018-09-04T12:36:32.757Z,27.02
2018-09-04T12:39:03.291Z,24.45
2018-09-04T12:41:33.502Z,24.95
2018-09-04T12:44:03.937Z,24.35
2018-09-04T12:46:34.078Z,26.15
2018-09-04T12:49:04.128Z,23.38
2018-09-04T12:51:34.683Z,24.87
2018-09-04T12:54:05.203Z,28.83
2018-09-04T12:56:35.224Z,22.37
2018-09-04T12:59:05.453Z,22.67
2018-09-04T13:01:36.171Z,24.27
2018-09-04T13:04:06.808Z,20.60
2018-09-04T13:06:37.795Z,20.35
2018-09-04T13:09:08.418Z,19.30
2018-09-04T13:11:39.122Z,19.67
2018-09-04T13:14:09.286Z,19.07
2018-09-04T13:16:39.715Z,19.30
2018-09-04T13:19:09.791Z,19.07
2018-09-04T13:21:40.382Z,20.30
2018-09-04T13:24:10.957Z,18.48
2018-09-04T13:26:41.697Z,18.95
2018-09-04T13:29:11.675Z,19.27
2018-09-04T13:31:42.043Z,17.62
2018-09-04T13:34:12.447Z,20.23
2018-09-04T13:36:42.917Z,18.67
2018-09-04T13:39:12.916Z,18.95
2018-09-04T13:41:43.269Z,19.77
2018-09-04T13:44:13.688Z,20.90
2018-09-04T13:46:44.195Z,17.65
2018-09-04T13:49:14.782Z,18.05
2018-09-04T13:51:45.142Z,19.57
2018-09-04T13:54:15.838Z,19.65
2018-09-04T13:56:46.260Z,18.85
2018-09-04T13:59:16.724Z,19.80
2018-09-04T14:01:46.860Z,19.23
2018-09-04T14:04:17.207Z,19.60
2018-09-04T14:06:47.269Z,20.48
2018-09-04T14:09:17.550Z,20.95
2018-09-04T14:11:47.941Z,21.82
2018-09-04T14:14:18.335Z,21.55
2018-09-04T14:16:48.508Z,21.70
2018-09-04T14:19:18.780Z,21.10
2018-09-04T14:21:48.798Z,23.27
2018-09-04T14:24:18.864Z,22.90
2018-09-04T14:26:49.751Z,23.32
2018-09-04T14:29:53.168Z,26.25
2018-09-04T14:31:50.557Z,21.45
2018-09-04T14:34:20.666Z,22.37
2018-09-04T14:36:51.055Z,23.45
2018-09-04T14:39:21.985Z,21.70
2018-09-04T14:41:52.395Z,22.42
2018-09-04T14:44:22.518Z,21.73
2018-09-04T14:46:53.247Z,23.47
2018-09-04T14:49:23.904Z,24.85
2018-09-04T14:51:54.161Z,23.92
2018-09-04T14:55:05.757Z,23.70
2018-09-04T14:57:35.884Z,23.80
2018-09-04T15:00:06.437Z,22.42
2018-09-04T15:02:36.740Z,23.35
2018-09-04T15:05:06.790Z,21.75
2018-09-04T15:07:36.828Z,22.75
2018-09-04T15:10:06.918Z,20.82
2018-09-04T15:12:37.297Z,21.05
2018-09-04T15:15:08.201Z,21.23
2018-09-04T15:17:38.714Z,21.25
2018-09-04T15:20:09.015Z,21.30
2018-09-04T15:22:39.045Z,20.15
2018-09-04T15:25:09.315Z,20.02
2018-09-04T15:27:39.757Z,20.52
2018-09-04T15:30:09.846Z,21.12
2018-09-04T15:32:40.159Z,30.35
2018-09-04T15:35:10.979Z,21.60
2018-09-04T15:37:41.564Z,26.05
2018-09-04T15:40:11.854Z,27.82
2018-09-04T15:42:41.988Z,27.95
2018-09-04T15:45:12.400Z,25.17
2018-09-04T15:47:42.705Z,21.77
2018-09-04T15:50:13.152Z,23.97
2018-09-04T15:52:43.251Z,28.33
2018-09-04T15:55:13.488Z,32.57
2018-09-04T15:57:44.552Z,27.07
2018-09-04T16:00:15.780Z,31.13
2018-09-04T16:02:46.126Z,36.93
2018-09-04T16:05:17.012Z,27.70
2018-09-04T16:07:47.111Z,25.23
2018-09-04T16:10:17.887Z,22.47
2018-09-04T16:12:48.935Z,28.43
2018-09-04T16:15:19.100Z,34.07
2018-09-04T16:17:49.641Z,40.93
2018-09-04T16:20:20.440Z,34.10
2018-09-04T16:22:51.056Z,27.80
2018-09-04T16:25:21.271Z,25.90
2018-09-04T16:27:52.550Z,28.97
2018-09-04T16:30:23.694Z,29.27
2018-09-04T16:32:53.721Z,24.80
2018-09-04T16:35:24.341Z,23.17
2018-09-04T16:37:54.460Z,32.43
2018-09-04T16:40:25.050Z,24.03
2018-09-04T16:42:55.157Z,27.30
2018-09-04T16:45:25.133Z,23.43
2018-09-04T16:47:55.934Z,23.73
2018-09-04T16:50:26.100Z,24.50
2018-09-04T16:52:56.529Z,23.57
2018-09-04T16:55:26.853Z,22.47
2018-09-04T16:57:57.540Z,25.57
2018-09-04T17:00:27.855Z,22.47
2018-09-04T17:02:58.310Z,23.17
2018-09-04T17:05:28.745Z,24.33
2018-09-04T17:07:58.928Z,24.77
2018-09-04T17:10:29.449Z,25.63
2018-09-04T17:13:00.164Z,25.30
2018-09-04T17:15:30.619Z,29.37
2018-09-04T17:18:01.656Z,25.30
2018-09-04T17:20:32.561Z,23.97
2018-09-04T17:23:02.956Z,23.40
2018-09-04T17:25:33.552Z,25.80
2018-09-04T17:28:04.117Z,23.53
2018-09-04T17:30:35.016Z,26.43
2018-09-04T17:33:05.305Z,24.83
2018-09-04T17:35:35.870Z,22.87
2018-09-04T17:38:06.350Z,22.73
2018-09-04T17:40:36.504Z,21.67
2018-09-04T17:43:06.821Z,23.57
2018-09-04T17:45:37.673Z,22.33
2018-09-04T17:48:07.929Z,21.17
2018-09-04T17:50:38.056Z,26.40
2018-09-04T17:53:08.549Z,22.73
2018-09-04T17:55:38.772Z,22.20
2018-09-04T17:58:08.854Z,24.07
2018-09-04T18:00:39.105Z,24.17
2018-09-04T18:03:09.582Z,28.60
2018-09-04T18:05:40.801Z,26.17
2018-09-04T18:08:11.473Z,23.87
2018-09-04T18:10:42.153Z,24.87
2018-09-04T18:13:12.427Z,25.33
2018-09-04T18:15:42.899Z,25.50
2018-09-04T18:18:13.084Z,23.77
2018-09-04T18:20:43.744Z,25.90
2018-09-04T18:23:13.865Z,24.63
2018-09-04T18:25:43.884Z,23.90
2018-09-04T18:28:13.929Z,26.50
2018-09-04T18:30:44.478Z,25.50
2018-09-04T18:33:14.478Z,24.10
2018-09-04T18:35:44.470Z,26.50
2018-09-04T18:38:14.752Z,24.17
2018-09-04T18:40:44.765Z,26.07
2018-09-04T18:43:15.230Z,26.07
2018-09-04T18:45:55.794Z,26.03
2018-09-04T18:48:26.957Z,26.30
2018-09-04T18:50:57.440Z,27.13
2018-09-04T18:53:27.610Z,26.13
2018-09-04T18:55:57.738Z,28.60
2018-09-04T18:58:27.855Z,25.93
2018-09-04T19:00:58.033Z,24.80
2018-09-04T19:03:28.712Z,24.10
2018-09-04T19:05:58.824Z,26.70
2018-09-04T19:08:28.942Z,25.23
2018-09-04T19:10:59.619Z,24.53
2018-09-04T19:13:30.077Z,24.33
2018-09-04T19:16:00.262Z,26.13
2018-09-04T19:18:31.370Z,26.47
2018-09-04T19:21:01.499Z,21.83
2018-09-04T19:23:32.116Z,23.43
2018-09-04T19:26:02.251Z,25.60
2018-09-04T19:28:32.418Z,28.10
2018-09-04T19:31:02.812Z,28.73
2018-09-04T19:33:32.807Z,26.07
2018-09-04T19:36:02.950Z,24.53
2018-09-04T19:38:33.081Z,24.10
2018-09-04T19:41:03.671Z,25.87
2018-09-04T19:43:34.607Z,25.20
2018-09-04T19:46:05.092Z,27.00
2018-09-04T19:48:35.675Z,27.10
2018-09-04T19:51:06.629Z,26.93
2018-09-04T19:53:37.051Z,26.37
2018-09-04T19:56:07.390Z,28.00
2018-09-04T19:58:37.568Z,29.17
2018-09-04T20:01:08.392Z,29.10
2018-09-04T20:03:39.015Z,29.17
2018-09-04T20:06:10.096Z,30.50
2018-09-04T20:08:40.338Z,29.27
2018-09-04T20:11:11.265Z,30.30
2018-09-04T20:13:41.758Z,27.17
2018-09-04T20:16:12.382Z,25.40
2018-09-04T20:18:43.249Z,23.83
2018-09-04T20:21:13.964Z,27.50
2018-09-04T20:23:44.128Z,27.70
2018-09-04T20:26:14.813Z,27.87
2018-09-04T20:28:45.290Z,26.33
2018-09-04T20:31:15.743Z,27.27
2018-09-04T20:33:46.228Z,26.60
2018-09-04T20:36:16.309Z,24.63
2018-09-04T20:38:46.567Z,27.13
2018-09-04T20:41:16.794Z,25.70
2018-09-04T20:43:46.906Z,26.83
2018-09-04T20:46:17.500Z,28.07
2018-09-04T20:48:48.152Z,29.10
2018-09-04T20:51:18.716Z,27.80
2018-09-04T20:53:49.222Z,28.80
2018-09-04T20:56:19.672Z,27.60
2018-09-04T20:59:00.517Z,31.50
2018-09-04T21:01:41.829Z,30.67
2018-09-04T21:04:22.565Z,30.07
2018-09-04T21:06:52.547Z,28.27
2018-09-04T21:09:44.411Z,31.43
2018-09-04T21:12:15.054Z,32.90
2018-09-04T21:14:45.202Z,31.40
2018-09-04T21:17:15.746Z,30.83
2018-09-04T21:19:46.321Z,31.20
2018-09-04T21:22:16.459Z,32.43
2018-09-04T21:24:47.125Z,32.07
2018-09-04T21:27:17.665Z,30.43
2018-09-04T21:29:48.290Z,30.70
2018-09-04T21:32:18.740Z,32.90
2018-09-04T21:34:48.957Z,35.17
2018-09-04T21:37:19.055Z,30.07
2018-09-04T21:39:50.248Z,30.30
2018-09-04T21:42:20.601Z,33.20
2018-09-04T21:44:51.336Z,34.73
2018-09-04T21:47:21.408Z,34.67
2018-09-04T21:49:51.475Z,31.93
2018-09-04T21:52:21.568Z,34.03
2018-09-04T21:54:52.177Z,33.80
2018-09-04T21:57:22.369Z,33.80
2018-09-04T21:59:52.897Z,31.80
2018-09-04T22:02:22.967Z,35.67
2018-09-04T22:04:52.938Z,34.73
2018-09-04T22:07:23.361Z,32.20
2018-09-04T22:09:53.376Z,30.60
2018-09-04T22:12:23.509Z,33.53
2018-09-04T22:14:53.683Z,32.50
2018-09-04T22:17:24.158Z,33.60
2018-09-04T22:19:54.932Z,35.53
2018-09-04T22:22:25.077Z,31.07
2018-09-04T22:24:55.145Z,34.80
2018-09-04T22:27:25.277Z,34.13
2018-09-04T22:29:55.996Z,32.20
2018-09-04T22:32:26.615Z,32.50
2018-09-04T22:34:57.347Z,31.93
2018-09-04T22:37:27.496Z,36.20
2018-09-04T22:39:58.066Z,33.97
2018-09-04T22:42:28.783Z,34.97
2018-09-04T22:44:58.984Z,33.17
2018-09-04T22:47:29.273Z,36.10
2018-09-04T22:50:04.874Z,36.03
2018-09-04T22:52:35.349Z,39.13
2018-09-04T22:55:07.188Z,33.33
2018-09-04T22:57:37.826Z,35.17
2018-09-04T23:00:08.924Z,34.07
2018-09-04T23:02:39.619Z,35.03
2018-09-04T23:05:09.778Z,35.33
2018-09-04T23:07:40.284Z,36.33
2018-09-04T23:10:10.411Z,36.53
2018-09-04T23:12:40.955Z,37.03
2018-09-04T23:15:11.003Z,37.37
2018-09-04T23:17:41.607Z,37.50
2018-09-04T23:20:11.769Z,38.13
2018-09-04T23:22:42.759Z,38.73
2018-09-04T23:25:13.147Z,37.50
2018-09-04T23:27:43.454Z,34.27
2018-09-04T23:30:13.547Z,34.83
2018-09-04T23:32:45.597Z,34.70
2018-09-04T23:35:15.718Z,35.23
2018-09-04T23:37:46.207Z,34.17
2018-09-04T23:40:16.358Z,34.80
2018-09-04T23:42:47.311Z,35.97
2018-09-04T23:45:18.080Z,35.13
2018-09-04T23:47:49.035Z,35.47
2018-09-04T23:50:20.277Z,34.37
2018-09-04T23:52:51.468Z,35.67
2018-09-04T23:55:21.779Z,36.13
2018-09-04T23:57:51.903Z,38.57
